createdAt,value
2019-01-13T00:00:12.498Z,3.00
2019-01-13T00:04:20.787Z,3.10
2019-01-13T00:08:27.172Z,3.00
2019-01-13T00:12:35.684Z,3.10
2019-01-13T00:16:42.015Z,3.10
2019-01-13T00:20:48.694Z,3.00
2019-01-13T00:24:54.976Z,2.90
2019-01-13T00:29:04.218Z,2.90
2019-01-13T00:33:12.643Z,3.00
2019-01-13T00:37:19.254Z,3.10
2019-01-13T00:41:26.528Z,3.00
2019-01-13T00:45:33.600Z,3.20
2019-01-13T00:49:39.845Z,3.20
2019-01-13T00:53:46.386Z,3.20
2019-01-13T00:57:52.644Z,3.20
2019-01-13T01:02:00.287Z,3.00
2019-01-13T01:06:06.771Z,3.10
2019-01-13T01:10:14.202Z,3.00
2019-01-13T01:14:20.746Z,3.10
2019-01-13T01:18:28.102Z,3.00
2019-01-13T01:22:36.766Z,3.00
2019-01-13T01:26:43.775Z,2.90
2019-01-13T01:30:50.595Z,2.90
2019-01-13T01:34:57.654Z,2.90
2019-01-13T01:39:09.896Z,2.70
2019-01-13T01:43:16.658Z,2.80
2019-01-13T01:47:23.061Z,2.90
2019-01-13T01:51:30.665Z,2.80
2019-01-13T01:55:37.003Z,2.80
2019-01-13T01:59:45.224Z,2.70
2019-01-13T02:03:52.420Z,3.00
2019-01-13T02:08:00.107Z,2.80
2019-01-13T02:12:06.685Z,2.70
2019-01-13T02:16:16.513Z,2.80
2019-01-13T02:20:23.314Z,2.90
2019-01-13T02:24:31.145Z,2.90
2019-01-13T02:28:37.419Z,2.90
2019-01-13T02:32:45.411Z,2.80
2019-01-13T02:36:51.657Z,2.90
2019-01-13T02:40:58.370Z,2.80
2019-01-13T02:45:06.588Z,2.90
2019-01-13T02:49:13.308Z,2.90
2019-01-13T02:53:19.596Z,2.80
2019-01-13T02:57:26.985Z,3.00
2019-01-13T03:01:33.337Z,2.90
2019-01-13T03:05:39.938Z,2.90
2019-01-13T03:09:46.189Z,2.90
2019-01-13T03:13:52.743Z,2.80
2019-01-13T03:17:59.038Z,2.80
2019-01-13T03:22:05.966Z,2.80
2019-01-13T03:26:12.246Z,2.70
2019-01-13T03:30:25.389Z,2.60
2019-01-13T03:34:32.289Z,2.80
2019-01-13T03:38:38.973Z,2.70
2019-01-13T03:42:45.346Z,2.80
2019-01-13T03:46:53.728Z,2.70
2019-01-13T03:51:00.021Z,2.80
2019-01-13T03:55:08.920Z,2.80
2019-01-13T03:59:16.801Z,2.70
2019-01-13T04:03:24.545Z,2.70
2019-01-13T04:07:30.844Z,2.80
2019-01-13T04:11:37.555Z,2.90
2019-01-13T04:15:45.649Z,2.90
2019-01-13T04:19:53.613Z,2.80
2019-01-13T04:23:59.899Z,2.80
2019-01-13T04:28:06.737Z,2.70
2019-01-13T04:32:13.029Z,2.60
2019-01-13T04:36:20.122Z,2.70
2019-01-13T04:40:26.435Z,2.70
2019-01-13T04:44:32.985Z,2.80
2019-01-13T04:48:39.281Z,2.90
2019-01-13T04:52:45.844Z,3.00
2019-01-13T04:56:52.209Z,3.00
2019-01-13T05:00:59.653Z,3.00
2019-01-13T05:05:07.119Z,2.80
2019-01-13T05:09:13.968Z,3.00
2019-01-13T05:13:22.346Z,2.90
2019-01-13T05:17:28.554Z,2.70
2019-01-13T05:21:34.838Z,2.80
2019-01-13T05:25:42.532Z,3.00
2019-01-13T05:29:48.826Z,3.00
2019-01-13T05:33:55.372Z,2.90
2019-01-13T05:38:02.532Z,3.00
2019-01-13T05:42:09.951Z,3.00
2019-01-13T05:46:16.246Z,3.10
2019-01-13T05:50:24.833Z,3.00
2019-01-13T05:54:30.923Z,2.90
2019-01-13T05:58:38.078Z,2.90
2019-01-13T06:02:44.428Z,3.00
2019-01-13T06:06:51.045Z,3.00
2019-01-13T06:10:57.311Z,2.90
2019-01-13T06:15:05.346Z,2.90
2019-01-13T06:19:11.700Z,2.80
2019-01-13T06:23:18.186Z,3.10
2019-01-13T06:27:25.124Z,3.10
2019-01-13T06:31:32.023Z,3.30
2019-01-13T06:35:38.370Z,3.40
2019-01-13T06:39:45.766Z,3.20
2019-01-13T06:43:52.069Z,3.20
2019-01-13T06:47:59.525Z,3.40
2019-01-13T06:52:05.993Z,3.50
2019-01-13T06:56:12.667Z,3.60
2019-01-13T07:00:26.688Z,3.50
2019-01-13T07:04:36.608Z,3.50
2019-01-13T07:08:42.884Z,3.60
2019-01-13T07:12:49.461Z,3.80
2019-01-13T07:16:55.744Z,3.80
2019-01-13T07:21:02.624Z,3.80
2019-01-13T07:25:08.932Z,3.80
2019-01-13T07:29:15.480Z,3.90
2019-01-13T07:33:22.387Z,4.00
2019-01-13T07:37:30.275Z,4.00
2019-01-13T07:41:39.815Z,3.90
2019-01-13T07:45:47.116Z,3.60
2019-01-13T07:49:53.513Z,3.70
2019-01-13T07:54:01.743Z,3.60
2019-01-13T07:58:08.035Z,3.80
2019-01-13T08:02:18.029Z,3.80
2019-01-13T08:06:22.926Z,3.70
2019-01-13T08:10:30.303Z,3.80
2019-01-13T08:14:36.607Z,3.80
2019-01-13T08:18:45.437Z,3.70
2019-01-13T08:22:51.862Z,3.70
2019-01-13T08:27:00.044Z,3.80
2019-01-13T08:31:06.445Z,3.80
2019-01-13T08:35:12.933Z,3.70
2019-01-13T08:39:19.291Z,3.90
2019-01-13T08:43:29.947Z,4.00
2019-01-13T08:47:36.336Z,3.90
2019-01-13T08:51:44.340Z,3.80
2019-01-13T08:55:50.681Z,4.10
2019-01-13T08:59:58.668Z,4.10
2019-01-13T09:04:07.101Z,4.10
2019-01-13T09:08:13.674Z,4.30
2019-01-13T09:12:20.037Z,4.20
2019-01-13T09:16:27.797Z,4.20
2019-01-13T09:20:34.071Z,4.20
2019-01-13T09:24:40.762Z,4.30
2019-01-13T09:28:47.058Z,4.30
2019-01-13T09:32:53.949Z,4.20
2019-01-13T09:37:00.216Z,4.20
2019-01-13T09:41:07.005Z,4.30
2019-01-13T09:45:15.505Z,4.30
2019-01-13T09:49:23.009Z,4.30
2019-01-13T09:53:29.335Z,4.20
2019-01-13T09:57:35.864Z,4.30
2019-01-13T10:01:42.384Z,4.20
2019-01-13T10:05:49.643Z,4.20
2019-01-13T10:09:55.915Z,4.10
2019-01-13T10:14:02.910Z,4.00
2019-01-13T10:18:09.343Z,4.10
2019-01-13T10:22:16.983Z,4.10
2019-01-13T10:26:23.392Z,4.20
2019-01-13T10:30:31.964Z,4.30
2019-01-13T10:34:38.432Z,4.40
2019-01-13T10:38:47.639Z,4.20
2019-01-13T10:42:54.184Z,4.20
2019-01-13T10:47:02.760Z,4.00
2019-01-13T10:51:09.181Z,4.10
2019-01-13T10:55:17.405Z,4.10
2019-01-13T10:59:24.709Z,4.10
2019-01-13T11:03:31.358Z,4.20
2019-01-13T11:07:37.607Z,4.20
2019-01-13T11:11:45.420Z,4.20
2019-01-13T11:15:54.703Z,4.20
2019-01-13T11:20:01.212Z,4.20
2019-01-13T11:24:07.694Z,4.30
2019-01-13T11:28:14.968Z,4.40
2019-01-13T11:32:21.288Z,4.40
2019-01-13T11:36:27.990Z,4.40
2019-01-13T11:40:34.321Z,4.50
2019-01-13T11:44:41.044Z,4.50
2019-01-13T11:48:51.105Z,4.50
2019-01-13T11:52:57.853Z,4.40
2019-01-13T11:57:04.175Z,4.40
2019-01-13T12:01:12.272Z,4.30
2019-01-13T12:05:20.882Z,4.30
2019-01-13T12:09:27.286Z,4.40
2019-01-13T12:13:33.663Z,0.80
2019-01-13T12:17:43.989Z,4.30
2019-01-13T12:21:50.225Z,4.40
2019-01-13T12:25:56.861Z,4.40
2019-01-13T12:30:03.183Z,4.40
2019-01-13T12:34:10.935Z,4.40
2019-01-13T12:38:18.187Z,4.40
2019-01-13T12:42:24.739Z,4.40
2019-01-13T12:46:31.070Z,4.40
2019-01-13T12:50:39.382Z,4.40
2019-01-13T12:54:45.673Z,4.40
2019-01-13T12:58:53.174Z,4.40
2019-01-13T13:03:02.230Z,4.40
2019-01-13T13:07:10.653Z,4.30
2019-01-13T13:11:18.248Z,4.40
2019-01-13T13:15:24.868Z,4.50
2019-01-13T13:19:31.223Z,4.50
2019-01-13T13:23:38.647Z,4.60
2019-01-13T13:27:46.896Z,4.50
2019-01-13T13:31:53.387Z,4.50
2019-01-13T13:36:00.774Z,4.40
2019-01-13T13:40:09.474Z,4.50
2019-01-13T13:44:16.037Z,4.30
2019-01-13T13:48:22.683Z,4.30
2019-01-13T13:52:33.658Z,4.40
2019-01-13T13:56:40.918Z,4.50
2019-01-13T14:00:48.136Z,4.60
2019-01-13T14:04:54.736Z,4.70
2019-01-13T14:09:02.184Z,4.60
2019-01-13T14:13:10.893Z,4.60
2019-01-13T14:17:17.296Z,4.60
2019-01-13T14:21:24.011Z,4.60
2019-01-13T14:25:30.521Z,4.60
2019-01-13T14:29:38.202Z,4.40
2019-01-13T14:33:44.724Z,4.40
2019-01-13T14:37:51.533Z,4.50
2019-01-13T14:41:57.857Z,4.50
2019-01-13T14:46:09.216Z,4.50
2019-01-13T14:50:18.167Z,4.40
2019-01-13T14:54:25.629Z,4.30
2019-01-13T14:58:31.920Z,4.40
2019-01-13T15:02:38.923Z,4.30
2019-01-13T15:06:45.242Z,4.40
2019-01-13T15:10:51.872Z,4.40
2019-01-13T15:14:58.230Z,4.40
2019-01-13T15:19:09.844Z,4.50
2019-01-13T15:23:16.185Z,4.40
2019-01-13T15:27:22.885Z,4.40
2019-01-13T15:31:29.293Z,4.30
2019-01-13T15:35:36.172Z,4.10
2019-01-13T15:39:42.591Z,4.20
2019-01-13T15:43:50.585Z,4.30
2019-01-13T15:47:56.940Z,4.30
2019-01-13T15:52:03.915Z,4.30
2019-01-13T15:56:11.003Z,4.20
2019-01-13T16:00:23.006Z,4.20
2019-01-13T16:04:29.388Z,4.20
2019-01-13T16:08:36.716Z,4.10
2019-01-13T16:12:43.080Z,4.10
2019-01-13T16:16:49.642Z,4.20
2019-01-13T16:20:56.016Z,4.30
2019-01-13T16:25:03.058Z,4.30
2019-01-13T16:29:09.425Z,4.30
2019-01-13T16:33:17.128Z,4.50
2019-01-13T16:37:23.644Z,4.20
2019-01-13T16:41:30.331Z,4.30
2019-01-13T16:45:36.670Z,4.30
2019-01-13T16:49:43.497Z,4.50
2019-01-13T16:53:49.756Z,4.30
2019-01-13T16:57:57.813Z,4.40
2019-01-13T17:02:04.255Z,4.40
2019-01-13T17:06:10.799Z,4.20
2019-01-13T17:10:18.805Z,4.30
2019-01-13T17:14:26.323Z,4.20
2019-01-13T17:18:32.629Z,4.30
2019-01-13T17:22:39.407Z,4.20
2019-01-13T17:26:45.998Z,4.20
2019-01-13T17:30:53.509Z,4.20
2019-01-13T17:34:59.821Z,4.20
2019-01-13T17:39:09.057Z,4.20
2019-01-13T17:43:17.233Z,4.10
2019-01-13T17:47:24.916Z,4.10
2019-01-13T17:51:33.713Z,4.10
2019-01-13T17:55:40.720Z,4.20
2019-01-13T17:59:47.852Z,4.10
2019-01-13T18:03:54.882Z,4.10
2019-01-13T18:08:01.323Z,4.20
2019-01-13T18:12:07.976Z,4.20
2019-01-13T18:16:14.273Z,4.20
2019-01-13T18:20:21.814Z,4.20
2019-01-13T18:24:28.052Z,4.20
2019-01-13T18:28:34.767Z,4.10
2019-01-13T18:32:41.079Z,4.10
2019-01-13T18:36:48.960Z,4.10
2019-01-13T18:40:55.304Z,4.00
2019-01-13T18:45:02.020Z,3.90
2019-01-13T18:49:08.536Z,4.00
2019-01-13T18:53:17.445Z,4.10
2019-01-13T18:57:23.774Z,4.10
2019-01-13T19:01:30.771Z,4.10
2019-01-13T19:05:37.077Z,4.00
2019-01-13T19:09:44.460Z,3.90
2019-01-13T19:14:20.252Z,3.90
2019-01-13T19:18:26.751Z,3.80
2019-01-13T19:22:34.151Z,4.00
2019-01-13T19:26:42.195Z,3.90
2019-01-13T19:30:48.627Z,3.90
2019-01-13T19:34:57.004Z,3.90
2019-01-13T19:39:03.877Z,3.90
2019-01-13T19:43:12.598Z,3.90
2019-01-13T19:47:20.840Z,3.90
2019-01-13T19:51:28.583Z,4.00
2019-01-13T19:55:34.893Z,4.00
2019-01-13T19:59:42.262Z,4.00
2019-01-13T20:03:56.466Z,3.90
2019-01-13T20:08:05.564Z,3.90
2019-01-13T20:12:13.914Z,3.90
2019-01-13T20:16:25.052Z,3.80
2019-01-13T20:21:00.811Z,3.80
2019-01-13T20:25:49.952Z,3.80
2019-01-13T20:30:06.496Z,3.70
2019-01-13T20:34:14.076Z,3.60
2019-01-13T20:38:24.639Z,3.70
2019-01-13T20:42:41.390Z,3.80
2019-01-13T20:46:56.554Z,3.70
2019-01-13T20:51:28.174Z,3.80
2019-01-13T20:55:46.162Z,3.70
2019-01-13T21:00:25.602Z,3.70
2019-01-13T21:04:49.506Z,3.70
2019-01-13T21:08:52.449Z,3.50
2019-01-13T21:13:00.225Z,3.40
2019-01-13T21:17:11.866Z,3.60
2019-01-13T21:21:20.046Z,3.50
2019-01-13T21:25:33.707Z,3.40
2019-01-13T21:29:42.755Z,3.50
2019-01-13T21:34:22.345Z,3.50
2019-01-13T21:38:53.768Z,3.40
2019-01-13T21:43:03.828Z,3.40
2019-01-13T21:47:13.092Z,3.50
2019-01-13T21:51:57.387Z,3.40
2019-01-13T21:55:36.297Z,3.40
2019-01-13T21:59:45.529Z,3.40
2019-01-13T22:03:51.929Z,3.50
2019-01-13T22:08:00.295Z,3.40
2019-01-13T22:12:06.688Z,3.60
2019-01-13T22:16:13.270Z,3.50
2019-01-13T22:20:20.980Z,3.50
2019-01-13T22:24:28.216Z,3.60
2019-01-13T22:28:34.562Z,3.60
2019-01-13T22:32:41.162Z,3.60
2019-01-13T22:36:47.576Z,3.70
2019-01-13T22:40:54.597Z,3.70
2019-01-13T22:45:00.923Z,3.80
2019-01-13T22:49:07.991Z,3.90
2019-01-13T22:53:14.313Z,3.90
2019-01-13T22:57:20.846Z,4.10
2019-01-13T23:01:38.196Z,4.10
2019-01-13T23:05:45.476Z,4.40
2019-01-13T23:09:54.302Z,4.00
2019-01-13T23:14:00.804Z,4.00
2019-01-13T23:18:07.228Z,4.00
2019-01-13T23:22:14.305Z,4.10
2019-01-13T23:26:21.869Z,4.20
2019-01-13T23:30:28.386Z,4.10
2019-01-13T23:34:36.065Z,4.20
2019-01-13T23:38:44.086Z,4.10
2019-01-13T23:42:50.748Z,4.10
2019-01-13T23:46:58.699Z,4.20
2019-01-13T23:51:05.050Z,4.20
2019-01-13T23:55:11.985Z,4.10
2019-01-13T23:59:18.384Z,4.10
